sensor_id;sensor_type;location;lat;lon;timestamp;P1;durP1;ratioP1;P2;durP2;ratioP2
60718;SDS011;46567;51.660;5.824;2023-07-30T00:01:59;6.3;;;2.6;;
60718;SDS011;46567;51.660;5.824;2023-07-30T00:06:59;5.3;;;2.9;;
60718;SDS011;46567;51.660;5.824;2023-07-30T00:11:59;6.2;;;2.7;;
60718;SDS011;46567;51.660;5.824;2023-07-30T00:16:59;9.1;;;2.8;;
60718;SDS011;46567;51.660;5.824;2023-07-30T00:21:59;8.1;;;2.7;;
60718;SDS011;46567;51.660;5.824;2023-07-30T00:26:59;5.1;;;2.5;;
60718;SDS011;46567;51.660;5.824;2023-07-30T00:31:59;4.7;;;2.8;;
60718;SDS011;46567;51.660;5.824;2023-07-30T00:36:59;6.0;;;2.7;;
60718;SDS011;46567;51.660;5.824;2023-07-30T00:41:59;4.1;;;2.3;;
60718;SDS011;46567;51.660;5.824;2023-07-30T00:46:59;8.2;;;2.7;;
60718;SDS011;46567;51.660;5.824;2023-07-30T00:51:59;8.8;;;3.2;;
60718;SDS011;46567;51.660;5.824;2023-07-30T00:56:59;8.5;;;2.8;;
60718;SDS011;46567;51.660;5.824;2023-07-30T01:01:59;6.4;;;2.5;;
60718;SDS011;46567;51.660;5.824;2023-07-30T01:06:59;6.3;;;2.4;;
60718;SDS011;46567;51.660;5.824;2023-07-30T01:11:59;9.0;;;2.8;;
60718;SDS011;46567;51.660;5.824;2023-07-30T01:16:59;10.8;;;2.6;;
60718;SDS011;46567;51.660;5.824;2023-07-30T01:21:59;7.4;;;3.0;;
60718;SDS011;46567;51.660;5.824;2023-07-30T01:27:02;6.0;;;2.9;;
60718;SDS011;46567;51.660;5.824;2023-07-30T01:32:04;6.4;;;3.0;;
60718;SDS011;46567;51.660;5.824;2023-07-30T01:36:59;6.8;;;2.6;;
60718;SDS011;46567;51.660;5.824;2023-07-30T01:41:59;5.4;;;2.6;;
60718;SDS011;46567;51.660;5.824;2023-07-30T01:46:59;6.5;;;3.0;;
60718;SDS011;46567;51.660;5.824;2023-07-30T01:51:59;8.2;;;2.7;;
60718;SDS011;46567;51.660;5.824;2023-07-30T01:56:59;6.2;;;3.0;;
60718;SDS011;46567;51.660;5.824;2023-07-30T02:01:59;6.7;;;2.7;;
60718;SDS011;46567;51.660;5.824;2023-07-30T02:06:59;9.5;;;3.0;;
60718;SDS011;46567;51.660;5.824;2023-07-30T02:16:59;6.6;;;3.1;;
60718;SDS011;46567;51.660;5.824;2023-07-30T02:21:59;9.0;;;3.2;;
60718;SDS011;46567;51.660;5.824;2023-07-30T02:26:59;9.3;;;3.1;;
60718;SDS011;46567;51.660;5.824;2023-07-30T02:31:59;8.3;;;3.0;;
60718;SDS011;46567;51.660;5.824;2023-07-30T02:36:59;7.0;;;3.1;;
60718;SDS011;46567;51.660;5.824;2023-07-30T02:41:59;7.5;;;3.1;;
60718;SDS011;46567;51.660;5.824;2023-07-30T02:46:59;8.0;;;2.9;;
60718;SDS011;46567;51.660;5.824;2023-07-30T02:51:59;12.4;;;3.5;;
60718;SDS011;46567;51.660;5.824;2023-07-30T02:56:59;9.3;;;3.3;;
60718;SDS011;46567;51.660;5.824;2023-07-30T03:01:59;12.0;;;3.7;;
60718;SDS011;46567;51.660;5.824;2023-07-30T03:06:59;13.3;;;3.9;;
60718;SDS011;46567;51.660;5.824;2023-07-30T03:11:59;9.0;;;4.0;;
60718;SDS011;46567;51.660;5.824;2023-07-30T03:16:59;12.6;;;3.8;;
60718;SDS011;46567;51.660;5.824;2023-07-30T03:21:59;9.0;;;4.5;;
60718;SDS011;46567;51.660;5.824;2023-07-30T03:26:59;13.2;;;5.4;;
60718;SDS011;46567;51.660;5.824;2023-07-30T03:31:59;12.2;;;5.3;;
60718;SDS011;46567;51.660;5.824;2023-07-30T03:36:59;12.7;;;5.8;;
60718;SDS011;46567;51.660;5.824;2023-07-30T03:41:59;16.7;;;6.2;;
60718;SDS011;46567;51.660;5.824;2023-07-30T03:46:59;17.6;;;6.4;;
60718;SDS011;46567;51.660;5.824;2023-07-30T03:51:59;14.7;;;6.8;;
60718;SDS011;46567;51.660;5.824;2023-07-30T03:56:59;15.0;;;6.3;;
60718;SDS011;46567;51.660;5.824;2023-07-30T04:01:59;22.1;;;7.1;;
60718;SDS011;46567;51.660;5.824;2023-07-30T04:06:59;15.2;;;6.8;;
60718;SDS011;46567;51.660;5.824;2023-07-30T04:11:59;14.6;;;6.3;;
60718;SDS011;46567;51.660;5.824;2023-07-30T04:16:59;16.4;;;6.2;;
60718;SDS011;46567;51.660;5.824;2023-07-30T04:21:59;15.2;;;6.5;;
60718;SDS011;46567;51.660;5.824;2023-07-30T04:27:00;22.8;;;7.6;;
60718;SDS011;46567;51.660;5.824;2023-07-30T04:31:59;13.7;;;6.2;;
60718;SDS011;46567;51.660;5.824;2023-07-30T04:36:59;13.3;;;5.8;;
60718;SDS011;46567;51.660;5.824;2023-07-30T04:41:59;15.2;;;6.1;;
60718;SDS011;46567;51.660;5.824;2023-07-30T04:46:59;14.0;;;5.9;;
60718;SDS011;46567;51.660;5.824;2023-07-30T04:51:59;19.0;;;5.9;;
60718;SDS011;46567;51.660;5.824;2023-07-30T04:56:59;14.4;;;5.7;;
60718;SDS011;46567;51.660;5.824;2023-07-30T05:01:59;17.9;;;6.2;;
60718;SDS011;46567;51.660;5.824;2023-07-30T05:06:59;15.0;;;6.1;;
60718;SDS011;46567;51.660;5.824;2023-07-30T05:11:59;15.1;;;5.9;;
60718;SDS011;46567;51.660;5.824;2023-07-30T05:16:59;19.1;;;6.1;;
60718;SDS011;46567;51.660;5.824;2023-07-30T05:21:59;20.2;;;6.4;;
60718;SDS011;46567;51.660;5.824;2023-07-30T05:26:59;16.4;;;6.2;;
60718;SDS011;46567;51.660;5.824;2023-07-30T05:31:59;21.3;;;6.5;;
60718;SDS011;46567;51.660;5.824;2023-07-30T05:36:59;16.1;;;6.2;;
60718;SDS011;46567;51.660;5.824;2023-07-30T05:41:59;16.9;;;6.1;;
60718;SDS011;46567;51.660;5.824;2023-07-30T05:46:59;15.1;;;6.2;;
60718;SDS011;46567;51.660;5.824;2023-07-30T05:51:59;14.8;;;5.9;;
60718;SDS011;46567;51.660;5.824;2023-07-30T05:56:59;17.0;;;6.5;;
60718;SDS011;46567;51.660;5.824;2023-07-30T06:02:01;14.5;;;6.1;;
60718;SDS011;46567;51.660;5.824;2023-07-30T06:06:59;13.4;;;6.0;;
60718;SDS011;46567;51.660;5.824;2023-07-30T06:11:59;23.4;;;6.6;;
60718;SDS011;46567;51.660;5.824;2023-07-30T06:16:59;15.3;;;6.7;;
60718;SDS011;46567;51.660;5.824;2023-07-30T06:21:59;18.8;;;7.1;;
60718;SDS011;46567;51.660;5.824;2023-07-30T06:26:59;15.7;;;6.8;;
60718;SDS011;46567;51.660;5.824;2023-07-30T06:31:59;19.3;;;7.0;;
60718;SDS011;46567;51.660;5.824;2023-07-30T06:36:59;15.6;;;6.9;;
60718;SDS011;46567;51.660;5.824;2023-07-30T06:41:59;18.9;;;8.2;;
60718;SDS011;46567;51.660;5.824;2023-07-30T06:46:59;24.4;;;7.7;;
60718;SDS011;46567;51.660;5.824;2023-07-30T06:51:59;25.0;;;7.9;;
60718;SDS011;46567;51.660;5.824;2023-07-30T06:56:59;22.8;;;8.6;;
60718;SDS011;46567;51.660;5.824;2023-07-30T07:01:59;19.4;;;7.7;;
60718;SDS011;46567;51.660;5.824;2023-07-30T07:06:59;22.2;;;7.8;;
60718;SDS011;46567;51.660;5.824;2023-07-30T07:11:59;23.1;;;7.8;;
60718;SDS011;46567;51.660;5.824;2023-07-30T07:16:59;19.5;;;7.0;;
60718;SDS011;46567;51.660;5.824;2023-07-30T07:21:59;23.0;;;6.9;;
60718;SDS011;46567;51.660;5.824;2023-07-30T07:26:59;20.1;;;5.9;;
60718;SDS011;46567;51.660;5.824;2023-07-30T07:31:59;15.5;;;5.4;;
60718;SDS011;46567;51.660;5.824;2023-07-30T07:36:59;18.7;;;5.2;;
60718;SDS011;46567;51.660;5.824;2023-07-30T07:41:59;20.3;;;4.8;;
60718;SDS011;46567;51.660;5.824;2023-07-30T07:46:59;14.4;;;4.1;;
60718;SDS011;46567;51.660;5.824;2023-07-30T07:51:59;16.0;;;4.6;;
60718;SDS011;46567;51.660;5.824;2023-07-30T07:56:59;12.9;;;4.2;;
60718;SDS011;46567;51.660;5.824;2023-07-30T08:01:59;11.5;;;3.6;;
60718;SDS011;46567;51.660;5.824;2023-07-30T08:06:59;10.1;;;3.4;;
60718;SDS011;46567;51.660;5.824;2023-07-30T08:11:59;14.9;;;3.5;;
60718;SDS011;46567;51.660;5.824;2023-07-30T08:16:59;12.7;;;3.4;;
60718;SDS011;46567;51.660;5.824;2023-07-30T08:21:59;15.6;;;3.9;;
60718;SDS011;46567;51.660;5.824;2023-07-30T08:26:59;11.8;;;3.3;;
60718;SDS011;46567;51.660;5.824;2023-07-30T08:31:59;18.9;;;3.8;;
60718;SDS011;46567;51.660;5.824;2023-07-30T08:36:59;14.2;;;3.3;;
60718;SDS011;46567;51.660;5.824;2023-07-30T08:41:59;14.6;;;3.3;;
60718;SDS011;46567;51.660;5.824;2023-07-30T08:46:59;17.5;;;3.6;;
60718;SDS011;46567;51.660;5.824;2023-07-30T08:51:59;16.7;;;3.6;;
60718;SDS011;46567;51.660;5.824;2023-07-30T08:56:59;10.9;;;3.2;;
60718;SDS011;46567;51.660;5.824;2023-07-30T09:02:00;15.0;;;3.8;;
60718;SDS011;46567;51.660;5.824;2023-07-30T09:06:59;11.6;;;3.5;;
60718;SDS011;46567;51.660;5.824;2023-07-30T09:11:59;15.0;;;3.6;;
60718;SDS011;46567;51.660;5.824;2023-07-30T09:16:59;12.4;;;3.2;;
60718;SDS011;46567;51.660;5.824;2023-07-30T09:21:59;12.1;;;3.1;;
60718;SDS011;46567;51.660;5.824;2023-07-30T09:27:01;13.7;;;2.7;;
60718;SDS011;46567;51.660;5.824;2023-07-30T09:31:59;10.5;;;3.3;;
60718;SDS011;46567;51.660;5.824;2023-07-30T09:36:59;11.7;;;3.6;;
60718;SDS011;46567;51.660;5.824;2023-07-30T09:41:59;12.3;;;3.9;;
60718;SDS011;46567;51.660;5.824;2023-07-30T09:47:00;9.6;;;2.5;;
60718;SDS011;46567;51.660;5.824;2023-07-30T09:51:59;16.4;;;3.1;;
60718;SDS011;46567;51.660;5.824;2023-07-30T09:56:59;11.4;;;3.1;;
60718;SDS011;46567;51.660;5.824;2023-07-30T10:01:59;14.2;;;3.4;;
60718;SDS011;46567;51.660;5.824;2023-07-30T10:07:01;9.1;;;2.1;;
60718;SDS011;46567;51.660;5.824;2023-07-30T10:11:59;6.8;;;2.4;;
60718;SDS011;46567;51.660;5.824;2023-07-30T10:16:59;7.3;;;2.3;;
60718;SDS011;46567;51.660;5.824;2023-07-30T10:22:01;12.1;;;2.4;;
60718;SDS011;46567;51.660;5.824;2023-07-30T10:27:05;7.8;;;2.5;;
60718;SDS011;46567;51.660;5.824;2023-07-30T10:31:59;7.7;;;2.6;;
60718;SDS011;46567;51.660;5.824;2023-07-30T10:36:59;4.0;;;1.7;;
60718;SDS011;46567;51.660;5.824;2023-07-30T10:41:59;3.0;;;1.2;;
60718;SDS011;46567;51.660;5.824;2023-07-30T10:47:00;3.4;;;1.3;;
60718;SDS011;46567;51.660;5.824;2023-07-30T10:51:59;4.8;;;1.7;;
60718;SDS011;46567;51.660;5.824;2023-07-30T10:56:59;5.0;;;1.8;;
60718;SDS011;46567;51.660;5.824;2023-07-30T11:01:59;3.3;;;1.6;;
60718;SDS011;46567;51.660;5.824;2023-07-30T11:06:59;5.3;;;2.0;;
60718;SDS011;46567;51.660;5.824;2023-07-30T11:11:59;5.6;;;2.2;;
60718;SDS011;46567;51.660;5.824;2023-07-30T11:16:59;8.9;;;2.9;;
60718;SDS011;46567;51.660;5.824;2023-07-30T11:21:59;10.6;;;3.3;;
60718;SDS011;46567;51.660;5.824;2023-07-30T11:26:59;8.3;;;3.2;;
60718;SDS011;46567;51.660;5.824;2023-07-30T11:31:59;16.6;;;4.5;;
60718;SDS011;46567;51.660;5.824;2023-07-30T11:36:59;7.2;;;2.5;;
60718;SDS011;46567;51.660;5.824;2023-07-30T11:41:59;12.4;;;2.5;;
60718;SDS011;46567;51.660;5.824;2023-07-30T11:46:59;5.3;;;1.6;;
60718;SDS011;46567;51.660;5.824;2023-07-30T11:52:04;10.2;;;2.0;;
60718;SDS011;46567;51.660;5.824;2023-07-30T11:56:59;9.9;;;2.1;;
60718;SDS011;46567;51.660;5.824;2023-07-30T12:01:59;6.6;;;1.9;;
60718;SDS011;46567;51.660;5.824;2023-07-30T12:06:59;21.7;;;2.5;;
60718;SDS011;46567;51.660;5.824;2023-07-30T12:12:00;5.9;;;1.5;;
60718;SDS011;46567;51.660;5.824;2023-07-30T12:16:59;10.7;;;1.5;;
60718;SDS011;46567;51.660;5.824;2023-07-30T12:21:59;3.6;;;1.3;;
60718;SDS011;46567;51.660;5.824;2023-07-30T12:26:59;4.2;;;1.3;;
60718;SDS011;46567;51.660;5.824;2023-07-30T12:31:59;3.4;;;1.1;;
60718;SDS011;46567;51.660;5.824;2023-07-30T12:36:59;1.8;;;1.1;;
60718;SDS011;46567;51.660;5.824;2023-07-30T12:41:59;5.0;;;1.0;;
60718;SDS011;46567;51.660;5.824;2023-07-30T12:46:59;7.6;;;1.0;;
60718;SDS011;46567;51.660;5.824;2023-07-30T12:51:59;4.2;;;1.1;;
60718;SDS011;46567;51.660;5.824;2023-07-30T12:56:59;5.2;;;0.9;;
60718;SDS011;46567;51.660;5.824;2023-07-30T13:01:59;7.1;;;1.2;;
60718;SDS011;46567;51.660;5.824;2023-07-30T13:06:59;4.7;;;0.8;;
60718;SDS011;46567;51.660;5.824;2023-07-30T13:11:59;5.9;;;1.4;;
60718;SDS011;46567;51.660;5.824;2023-07-30T13:16:59;2.3;;;0.8;;
60718;SDS011;46567;51.660;5.824;2023-07-30T13:21:59;3.4;;;0.7;;
60718;SDS011;46567;51.660;5.824;2023-07-30T13:26:59;3.4;;;0.9;;
60718;SDS011;46567;51.660;5.824;2023-07-30T13:31:59;7.0;;;1.2;;
60718;SDS011;46567;51.660;5.824;2023-07-30T13:36:59;3.2;;;1.2;;
60718;SDS011;46567;51.660;5.824;2023-07-30T13:41:59;5.5;;;1.0;;
60718;SDS011;46567;51.660;5.824;2023-07-30T13:46:59;4.2;;;0.7;;
60718;SDS011;46567;51.660;5.824;2023-07-30T13:51:59;4.0;;;0.8;;
60718;SDS011;46567;51.660;5.824;2023-07-30T13:57:01;3.1;;;0.8;;
60718;SDS011;46567;51.660;5.824;2023-07-30T14:01:59;2.6;;;0.5;;
60718;SDS011;46567;51.660;5.824;2023-07-30T14:06:59;3.1;;;1.1;;
60718;SDS011;46567;51.660;5.824;2023-07-30T14:11:59;3.7;;;0.7;;
60718;SDS011;46567;51.660;5.824;2023-07-30T14:16:59;2.8;;;0.9;;
60718;SDS011;46567;51.660;5.824;2023-07-30T14:21:59;4.1;;;0.8;;
60718;SDS011;46567;51.660;5.824;2023-07-30T14:26:59;2.7;;;0.7;;
60718;SDS011;46567;51.660;5.824;2023-07-30T14:31:59;4.0;;;1.0;;
60718;SDS011;46567;51.660;5.824;2023-07-30T14:36:59;4.2;;;1.0;;
60718;SDS011;46567;51.660;5.824;2023-07-30T14:41:59;5.1;;;1.2;;
60718;SDS011;46567;51.660;5.824;2023-07-30T14:46:59;2.1;;;0.9;;
60718;SDS011;46567;51.660;5.824;2023-07-30T14:51:59;6.5;;;1.0;;
60718;SDS011;46567;51.660;5.824;2023-07-30T14:56:59;3.4;;;0.9;;
60718;SDS011;46567;51.660;5.824;2023-07-30T15:01:59;6.5;;;1.3;;
60718;SDS011;46567;51.660;5.824;2023-07-30T15:06:59;3.9;;;1.3;;
60718;SDS011;46567;51.660;5.824;2023-07-30T15:11:59;5.0;;;1.3;;
60718;SDS011;46567;51.660;5.824;2023-07-30T15:16:59;4.2;;;1.5;;
60718;SDS011;46567;51.660;5.824;2023-07-30T15:21:59;4.2;;;1.1;;
60718;SDS011;46567;51.660;5.824;2023-07-30T15:26:59;3.7;;;1.2;;
60718;SDS011;46567;51.660;5.824;2023-07-30T15:31:59;6.7;;;1.3;;
60718;SDS011;46567;51.660;5.824;2023-07-30T15:36:59;5.3;;;1.2;;
60718;SDS011;46567;51.660;5.824;2023-07-30T15:41:59;4.9;;;1.2;;
60718;SDS011;46567;51.660;5.824;2023-07-30T15:46:59;7.2;;;1.4;;
60718;SDS011;46567;51.660;5.824;2023-07-30T15:51:59;6.5;;;1.4;;
60718;SDS011;46567;51.660;5.824;2023-07-30T15:56:59;4.9;;;1.0;;
60718;SDS011;46567;51.660;5.824;2023-07-30T16:01:59;4.3;;;1.4;;
60718;SDS011;46567;51.660;5.824;2023-07-30T16:06:59;4.1;;;1.3;;
60718;SDS011;46567;51.660;5.824;2023-07-30T16:11:59;6.1;;;1.2;;
60718;SDS011;46567;51.660;5.824;2023-07-30T16:16:59;6.7;;;1.9;;
60718;SDS011;46567;51.660;5.824;2023-07-30T16:21:59;6.5;;;1.6;;
60718;SDS011;46567;51.660;5.824;2023-07-30T16:26:59;5.3;;;1.8;;
60718;SDS011;46567;51.660;5.824;2023-07-30T16:31:59;6.6;;;1.4;;
60718;SDS011;46567;51.660;5.824;2023-07-30T16:36:59;4.9;;;1.4;;
60718;SDS011;46567;51.660;5.824;2023-07-30T16:41:59;5.7;;;1.6;;
60718;SDS011;46567;51.660;5.824;2023-07-30T16:46:59;5.2;;;1.7;;
60718;SDS011;46567;51.660;5.824;2023-07-30T16:51:59;7.8;;;1.7;;
60718;SDS011;46567;51.660;5.824;2023-07-30T16:56:59;7.5;;;1.9;;
60718;SDS011;46567;51.660;5.824;2023-07-30T17:01:59;6.2;;;1.8;;
60718;SDS011;46567;51.660;5.824;2023-07-30T17:06:59;7.7;;;2.1;;
60718;SDS011;46567;51.660;5.824;2023-07-30T17:11:59;5.2;;;1.7;;
60718;SDS011;46567;51.660;5.824;2023-07-30T17:16:59;6.7;;;1.9;;
60718;SDS011;46567;51.660;5.824;2023-07-30T17:21:59;7.3;;;2.2;;
60718;SDS011;46567;51.660;5.824;2023-07-30T17:26:59;5.7;;;1.8;;
60718;SDS011;46567;51.660;5.824;2023-07-30T17:31:59;6.5;;;2.0;;
60718;SDS011;46567;51.660;5.824;2023-07-30T17:36:59;5.6;;;2.0;;
60718;SDS011;46567;51.660;5.824;2023-07-30T17:41:59;4.1;;;1.5;;
60718;SDS011;46567;51.660;5.824;2023-07-30T17:46:59;2.7;;;1.3;;
60718;SDS011;46567;51.660;5.824;2023-07-30T17:51:59;4.2;;;1.7;;
60718;SDS011;46567;51.660;5.824;2023-07-30T17:56:59;5.0;;;2.0;;
60718;SDS011;46567;51.660;5.824;2023-07-30T18:01:59;5.4;;;1.6;;
60718;SDS011;46567;51.660;5.824;2023-07-30T18:07:00;5.7;;;1.8;;
60718;SDS011;46567;51.660;5.824;2023-07-30T18:11:59;7.8;;;2.2;;
60718;SDS011;46567;51.660;5.824;2023-07-30T18:16:59;5.7;;;2.1;;
60718;SDS011;46567;51.660;5.824;2023-07-30T18:21:59;7.2;;;2.4;;
60718;SDS011;46567;51.660;5.824;2023-07-30T18:26:59;6.5;;;2.0;;
60718;SDS011;46567;51.660;5.824;2023-07-30T18:32:04;5.9;;;2.5;;
60718;SDS011;46567;51.660;5.824;2023-07-30T18:36:59;5.8;;;2.4;;
60718;SDS011;46567;51.660;5.824;2023-07-30T18:41:59;6.7;;;2.3;;
60718;SDS011;46567;51.660;5.824;2023-07-30T18:46:59;7.6;;;2.3;;
60718;SDS011;46567;51.660;5.824;2023-07-30T18:51:59;6.6;;;2.5;;
60718;SDS011;46567;51.660;5.824;2023-07-30T18:56:59;7.8;;;2.8;;
60718;SDS011;46567;51.660;5.824;2023-07-30T19:01:59;4.6;;;2.3;;
60718;SDS011;46567;51.660;5.824;2023-07-30T19:06:59;7.1;;;2.5;;
60718;SDS011;46567;51.660;5.824;2023-07-30T19:11:59;5.1;;;2.4;;
60718;SDS011;46567;51.660;5.824;2023-07-30T19:16:59;3.9;;;1.9;;
60718;SDS011;46567;51.660;5.824;2023-07-30T19:21:59;7.1;;;2.3;;
60718;SDS011;46567;51.660;5.824;2023-07-30T19:26:59;4.0;;;2.0;;
60718;SDS011;46567;51.660;5.824;2023-07-30T19:36:59;3.9;;;1.8;;
60718;SDS011;46567;51.660;5.824;2023-07-30T19:41:59;3.9;;;1.9;;
60718;SDS011;46567;51.660;5.824;2023-07-30T19:46:59;4.0;;;1.7;;
60718;SDS011;46567;51.660;5.824;2023-07-30T19:51:59;2.7;;;1.5;;
60718;SDS011;46567;51.660;5.824;2023-07-30T19:56:59;2.8;;;1.7;;
60718;SDS011;46567;51.660;5.824;2023-07-30T20:01:59;2.3;;;1.3;;
60718;SDS011;46567;51.660;5.824;2023-07-30T20:06:59;1.8;;;1.2;;
60718;SDS011;46567;51.660;5.824;2023-07-30T20:11:59;3.2;;;1.1;;
60718;SDS011;46567;51.660;5.824;2023-07-30T20:16:59;1.4;;;1.0;;
60718;SDS011;46567;51.660;5.824;2023-07-30T20:21:59;2.2;;;1.0;;
60718;SDS011;46567;51.660;5.824;2023-07-30T20:26:59;1.9;;;0.9;;
60718;SDS011;46567;51.660;5.824;2023-07-30T20:31:59;1.5;;;0.9;;
60718;SDS011;46567;51.660;5.824;2023-07-30T20:36:59;1.1;;;0.8;;
60718;SDS011;46567;51.660;5.824;2023-07-30T20:41:59;1.0;;;0.8;;
60718;SDS011;46567;51.660;5.824;2023-07-30T20:46:59;1.8;;;1.1;;
60718;SDS011;46567;51.660;5.824;2023-07-30T20:51:59;1.6;;;1.1;;
60718;SDS011;46567;51.660;5.824;2023-07-30T20:56:59;1.7;;;0.9;;
60718;SDS011;46567;51.660;5.824;2023-07-30T21:01:59;2.2;;;0.9;;
60718;SDS011;46567;51.660;5.824;2023-07-30T21:06:59;2.0;;;1.1;;
60718;SDS011;46567;51.660;5.824;2023-07-30T21:11:59;1.1;;;0.8;;
60718;SDS011;46567;51.660;5.824;2023-07-30T21:16:59;2.0;;;1.1;;
60718;SDS011;46567;51.660;5.824;2023-07-30T21:21:59;1.5;;;1.0;;
60718;SDS011;46567;51.660;5.824;2023-07-30T21:26:59;2.6;;;1.2;;
60718;SDS011;46567;51.660;5.824;2023-07-30T21:31:59;3.2;;;1.2;;
60718;SDS011;46567;51.660;5.824;2023-07-30T21:36:59;2.3;;;1.2;;
60718;SDS011;46567;51.660;5.824;2023-07-30T21:46:59;1.8;;;1.3;;
60718;SDS011;46567;51.660;5.824;2023-07-30T21:51:59;2.3;;;1.3;;
60718;SDS011;46567;51.660;5.824;2023-07-30T21:56:59;2.5;;;1.3;;
60718;SDS011;46567;51.660;5.824;2023-07-30T22:01:59;1.5;;;1.2;;
60718;SDS011;46567;51.660;5.824;2023-07-30T22:06:59;1.5;;;1.3;;
60718;SDS011;46567;51.660;5.824;2023-07-30T22:11:59;2.1;;;1.5;;
60718;SDS011;46567;51.660;5.824;2023-07-30T22:16:59;2.4;;;1.4;;
60718;SDS011;46567;51.660;5.824;2023-07-30T22:21:59;1.9;;;1.4;;
60718;SDS011;46567;51.660;5.824;2023-07-30T22:26:59;1.9;;;1.5;;
60718;SDS011;46567;51.660;5.824;2023-07-30T22:31:59;1.7;;;1.4;;
60718;SDS011;46567;51.660;5.824;2023-07-30T22:36:59;3.1;;;1.3;;
60718;SDS011;46567;51.660;5.824;2023-07-30T22:41:59;1.7;;;1.2;;
60718;SDS011;46567;51.660;5.824;2023-07-30T22:46:59;1.7;;;1.1;;
60718;SDS011;46567;51.660;5.824;2023-07-30T22:51:59;3.9;;;1.3;;
60718;SDS011;46567;51.660;5.824;2023-07-30T22:56:59;2.2;;;1.7;;
60718;SDS011;46567;51.660;5.824;2023-07-30T23:06:59;3.4;;;2.0;;
60718;SDS011;46567;51.660;5.824;2023-07-30T23:11:59;5.7;;;2.4;;
60718;SDS011;46567;51.660;5.824;2023-07-30T23:16:59;6.6;;;2.9;;
60718;SDS011;46567;51.660;5.824;2023-07-30T23:21:59;5.8;;;3.3;;
60718;SDS011;46567;51.660;5.824;2023-07-30T23:26:59;7.8;;;4.0;;
60718;SDS011;46567;51.660;5.824;2023-07-30T23:31:59;8.1;;;4.2;;
60718;SDS011;46567;51.660;5.824;2023-07-30T23:36:59;11.1;;;5.1;;
60718;SDS011;46567;51.660;5.824;2023-07-30T23:41:59;9.5;;;5.2;;
60718;SDS011;46567;51.660;5.824;2023-07-30T23:46:59;13.1;;;5.8;;
60718;SDS011;46567;51.660;5.824;2023-07-30T23:51:59;13.2;;;6.9;;
60718;SDS011;46567;51.660;5.824;2023-07-30T23:56:59;14.7;;;7.5;;
